Terminal Aerodrome Forecast
Issued by NWS

Current Version | Previous Version | Graphics & Text | Print | Product List | Glossary On
Versions: 1 2 3 4 5 6 7 8 9 10 11 12 13 14 15 16
000
FTUS41 KRLX 280200 AAA
TAFCKB
TAF AMD
KCKB 280243Z 2803/2824 17004G09KT P6SM SCT090 BKN250
     FM280500 23005KT P6SM OVC050
     FM280800 24005KT P6SM -RA OVC035
     FM281100 26004KT 5SM -RA BR OVC015
     FM281400 VRB03KT 2SM -RA BR OVC008
     FM282100 VRB03KT 5SM -RA BR OVC010=

USA.gov is the U.S. government's official web portal to all federal, state and local government web resources and services.